Terminal Aerodrome Forecast
Issued by NWS Cleveland, OH

Home | Current Version | Previous Version | Graphics & Text | Print | Product List | Glossary Off
Versions: 1 2 3 4 5 6 7 8 9 10 11 12 13 14 15 16 17 18 19 20 21 22 23 24

891
FTUS41 KCLE 221447 AAB
TAFCLE
TAF AMD
KCLE 221447Z 2215/2318 19006KT P6SM VCSH SCT015 BKN060
      TEMPO 2215/2219 4SM -SHRA BKN035
     FM221900 22007KT P6SM VCSH BKN035
     FM230500 VRB05KT P6SM SCT030 BKN050
     FM231100 VRB03KT P6SM BKN015 BKN035
     FM231400 24007KT P6SM BKN035 BKN050=

USA.gov is the U.S. government's official web portal to all federal, state and local government web resources and services.